sensor_id;sensor_type;location;lat;lon;timestamp;pressure;altitude;pressure_sealevel;temperature;humidity
58018;BME280;43810;50.860;19.226;2024-01-16T00:00:36;96714.50;;;-0.33;100.00
58018;BME280;43810;50.860;19.226;2024-01-16T00:03:21;96720.03;;;-0.26;100.00
58018;BME280;43810;50.860;19.226;2024-01-16T00:05:47;96717.78;;;-0.19;100.00
58018;BME280;43810;50.860;19.226;2024-01-16T00:08:14;96721.44;;;-0.20;100.00
58018;BME280;43810;50.860;19.226;2024-01-16T00:10:40;96728.81;;;-0.22;100.00
58018;BME280;43810;50.860;19.226;2024-01-16T00:13:06;96736.03;;;-0.27;100.00
58018;BME280;43810;50.860;19.226;2024-01-16T00:15:32;96729.69;;;-0.26;100.00
58018;BME280;43810;50.860;19.226;2024-01-16T00:17:57;96731.53;;;-0.27;100.00
58018;BME280;43810;50.860;19.226;2024-01-16T00:20:23;96743.69;;;-0.31;100.00
58018;BME280;43810;50.860;19.226;2024-01-16T00:22:51;96762.13;;;-0.19;100.00
58018;BME280;43810;50.860;19.226;2024-01-16T00:25:17;96769.78;;;-0.22;100.00
58018;BME280;43810;50.860;19.226;2024-01-16T00:27:46;96775.38;;;-0.46;100.00
58018;BME280;43810;50.860;19.226;2024-01-16T00:30:12;96783.00;;;-0.58;100.00
58018;BME280;43810;50.860;19.226;2024-01-16T00:32:39;96777.56;;;-0.70;100.00
58018;BME280;43810;50.860;19.226;2024-01-16T00:35:05;96783.03;;;-0.80;100.00
58018;BME280;43810;50.860;19.226;2024-01-16T00:37:30;96792.19;;;-0.83;100.00
58018;BME280;43810;50.860;19.226;2024-01-16T00:39:56;96797.25;;;-0.87;100.00
58018;BME280;43810;50.860;19.226;2024-01-16T00:42:22;96794.28;;;-0.94;100.00
58018;BME280;43810;50.860;19.226;2024-01-16T00:44:48;96801.09;;;-0.84;100.00
58018;BME280;43810;50.860;19.226;2024-01-16T00:47:14;96805.72;;;-0.81;100.00
58018;BME280;43810;50.860;19.226;2024-01-16T00:49:39;96808.03;;;-0.79;100.00
58018;BME280;43810;50.860;19.226;2024-01-16T00:52:05;96814.75;;;-0.87;100.00
58018;BME280;43810;50.860;19.226;2024-01-16T00:54:32;96822.72;;;-0.84;100.00
58018;BME280;43810;50.860;19.226;2024-01-16T00:56:58;96827.09;;;-0.93;100.00
58018;BME280;43810;50.860;19.226;2024-01-16T00:59:25;96822.91;;;-0.80;100.00
58018;BME280;43810;50.860;19.226;2024-01-16T01:01:51;96827.94;;;-0.84;100.00
58018;BME280;43810;50.860;19.226;2024-01-16T01:04:17;96828.25;;;-0.85;100.00
58018;BME280;43810;50.860;19.226;2024-01-16T01:06:43;96820.53;;;-0.90;100.00
58018;BME280;43810;50.860;19.226;2024-01-16T01:09:09;96819.75;;;-0.91;100.00
58018;BME280;43810;50.860;19.226;2024-01-16T01:11:38;96826.34;;;-0.93;100.00
58018;BME280;43810;50.860;19.226;2024-01-16T01:14:04;96825.28;;;-0.92;100.00
58018;BME280;43810;50.860;19.226;2024-01-16T01:16:30;96841.03;;;-0.97;100.00
58018;BME280;43810;50.860;19.226;2024-01-16T01:18:56;96839.56;;;-0.90;100.00
58018;BME280;43810;50.860;19.226;2024-01-16T01:21:21;96826.22;;;-0.88;100.00
58018;BME280;43810;50.860;19.226;2024-01-16T01:23:48;96832.91;;;-0.96;100.00
58018;BME280;43810;50.860;19.226;2024-01-16T01:26:13;96831.38;;;-0.97;100.00
58018;BME280;43810;50.860;19.226;2024-01-16T01:28:40;96832.75;;;-0.99;100.00
58018;BME280;43810;50.860;19.226;2024-01-16T01:31:09;96827.94;;;-1.06;100.00
58018;BME280;43810;50.860;19.226;2024-01-16T01:33:35;96829.22;;;-1.17;100.00
58018;BME280;43810;50.860;19.226;2024-01-16T01:36:01;96840.41;;;-1.16;100.00
58018;BME280;43810;50.860;19.226;2024-01-16T01:38:26;96840.59;;;-1.13;100.00
58018;BME280;43810;50.860;19.226;2024-01-16T01:40:52;96848.72;;;-1.14;100.00
58018;BME280;43810;50.860;19.226;2024-01-16T01:43:22;96838.28;;;-1.14;100.00
58018;BME280;43810;50.860;19.226;2024-01-16T01:48:23;96853.44;;;-1.16;100.00
58018;BME280;43810;50.860;19.226;2024-01-16T01:50:48;96856.69;;;-1.33;100.00
58018;BME280;43810;50.860;19.226;2024-01-16T01:53:14;96861.00;;;-1.29;100.00
58018;BME280;43810;50.860;19.226;2024-01-16T01:55:41;96865.38;;;-1.38;100.00
58018;BME280;43810;50.860;19.226;2024-01-16T01:58:07;96877.03;;;-1.35;100.00
58018;BME280;43810;50.860;19.226;2024-01-16T02:00:33;96880.28;;;-1.30;100.00
58018;BME280;43810;50.860;19.226;2024-01-16T02:02:59;96881.19;;;-1.34;100.00
58018;BME280;43810;50.860;19.226;2024-01-16T02:05:26;96889.69;;;-1.42;100.00
58018;BME280;43810;50.860;19.226;2024-01-16T02:07:53;96890.63;;;-1.38;100.00
58018;BME280;43810;50.860;19.226;2024-01-16T02:10:18;96897.88;;;-1.35;100.00
58018;BME280;43810;50.860;19.226;2024-01-16T02:12:44;96894.91;;;-1.42;100.00
58018;BME280;43810;50.860;19.226;2024-01-16T02:15:10;96897.03;;;-1.44;100.00
58018;BME280;43810;50.860;19.226;2024-01-16T02:17:36;96897.97;;;-1.40;100.00
58018;BME280;43810;50.860;19.226;2024-01-16T02:20:02;96905.41;;;-1.47;100.00
58018;BME280;43810;50.860;19.226;2024-01-16T02:22:28;96906.00;;;-1.50;100.00
58018;BME280;43810;50.860;19.226;2024-01-16T02:24:57;96916.91;;;-1.48;100.00
58018;BME280;43810;50.860;19.226;2024-01-16T02:27:23;96914.28;;;-1.48;100.00
58018;BME280;43810;50.860;19.226;2024-01-16T02:29:49;96909.75;;;-1.43;100.00
58018;BME280;43810;50.860;19.226;2024-01-16T02:32:15;96913.44;;;-1.44;100.00
58018;BME280;43810;50.860;19.226;2024-01-16T02:34:41;96910.63;;;-1.47;100.00
58018;BME280;43810;50.860;19.226;2024-01-16T02:37:07;96921.63;;;-1.50;100.00
58018;BME280;43810;50.860;19.226;2024-01-16T02:39:33;96918.53;;;-1.52;100.00
58018;BME280;43810;50.860;19.226;2024-01-16T02:41:59;96923.84;;;-1.44;100.00
58018;BME280;43810;50.860;19.226;2024-01-16T02:44:25;96924.72;;;-1.48;100.00
58018;BME280;43810;50.860;19.226;2024-01-16T02:46:51;96925.75;;;-1.49;100.00
58018;BME280;43810;50.860;19.226;2024-01-16T02:49:16;96933.56;;;-1.49;100.00
58018;BME280;43810;50.860;19.226;2024-01-16T02:51:42;96939.06;;;-1.51;100.00
58018;BME280;43810;50.860;19.226;2024-01-16T02:54:08;96941.31;;;-1.58;100.00
58018;BME280;43810;50.860;19.226;2024-01-16T02:56:34;96931.16;;;-1.60;100.00
58018;BME280;43810;50.860;19.226;2024-01-16T02:59:00;96942.75;;;-1.66;100.00
58018;BME280;43810;50.860;19.226;2024-01-16T03:01:26;96950.84;;;-1.67;100.00
58018;BME280;43810;50.860;19.226;2024-01-16T03:03:52;96948.63;;;-1.60;100.00
58018;BME280;43810;50.860;19.226;2024-01-16T03:06:25;96951.25;;;-1.46;100.00
58018;BME280;43810;50.860;19.226;2024-01-16T03:08:51;96955.66;;;-1.61;100.00
58018;BME280;43810;50.860;19.226;2024-01-16T03:11:17;96952.50;;;-1.58;100.00
58018;BME280;43810;50.860;19.226;2024-01-16T03:13:43;96957.59;;;-1.52;100.00
58018;BME280;43810;50.860;19.226;2024-01-16T03:16:12;96959.91;;;-1.65;100.00
58018;BME280;43810;50.860;19.226;2024-01-16T03:18:38;96968.88;;;-1.57;100.00
58018;BME280;43810;50.860;19.226;2024-01-16T03:21:05;96972.84;;;-1.60;100.00
58018;BME280;43810;50.860;19.226;2024-01-16T03:23:31;96968.13;;;-1.58;100.00
58018;BME280;43810;50.860;19.226;2024-01-16T03:25:57;96965.09;;;-1.65;100.00
58018;BME280;43810;50.860;19.226;2024-01-16T03:28:23;96967.81;;;-1.70;100.00
58018;BME280;43810;50.860;19.226;2024-01-16T03:30:49;96966.06;;;-1.74;100.00
58018;BME280;43810;50.860;19.226;2024-01-16T03:33:15;96985.94;;;-1.78;100.00
58018;BME280;43810;50.860;19.226;2024-01-16T03:35:41;96978.13;;;-1.78;100.00
58018;BME280;43810;50.860;19.226;2024-01-16T03:38:06;96975.78;;;-1.94;100.00
58018;BME280;43810;50.860;19.226;2024-01-16T03:40:32;96984.53;;;-2.03;100.00
58018;BME280;43810;50.860;19.226;2024-01-16T03:43:00;96978.34;;;-2.07;100.00
58018;BME280;43810;50.860;19.226;2024-01-16T03:45:26;96988.41;;;-2.01;100.00
58018;BME280;43810;50.860;19.226;2024-01-16T03:47:52;96987.41;;;-2.05;100.00
58018;BME280;43810;50.860;19.226;2024-01-16T03:50:18;96986.03;;;-2.16;100.00
58018;BME280;43810;50.860;19.226;2024-01-16T03:52:43;97001.03;;;-2.26;100.00
58018;BME280;43810;50.860;19.226;2024-01-16T03:55:09;96992.03;;;-2.34;100.00
58018;BME280;43810;50.860;19.226;2024-01-16T03:57:35;96997.88;;;-2.42;100.00
58018;BME280;43810;50.860;19.226;2024-01-16T04:00:01;97010.53;;;-2.54;100.00
58018;BME280;43810;50.860;19.226;2024-01-16T04:02:26;97017.41;;;-2.63;100.00
58018;BME280;43810;50.860;19.226;2024-01-16T04:04:52;97027.59;;;-2.67;100.00
58018;BME280;43810;50.860;19.226;2024-01-16T04:07:18;97011.59;;;-2.74;100.00
58018;BME280;43810;50.860;19.226;2024-01-16T04:09:44;97011.63;;;-2.79;100.00
58018;BME280;43810;50.860;19.226;2024-01-16T04:12:09;97006.53;;;-2.84;100.00
58018;BME280;43810;50.860;19.226;2024-01-16T04:14:35;97016.22;;;-2.71;100.00
58018;BME280;43810;50.860;19.226;2024-01-16T04:17:01;97022.22;;;-2.71;100.00
58018;BME280;43810;50.860;19.226;2024-01-16T04:19:27;97020.84;;;-2.68;100.00
58018;BME280;43810;50.860;19.226;2024-01-16T04:21:53;97027.09;;;-2.69;100.00
58018;BME280;43810;50.860;19.226;2024-01-16T04:24:19;97034.16;;;-2.70;100.00
58018;BME280;43810;50.860;19.226;2024-01-16T04:26:45;97025.09;;;-2.72;100.00
58018;BME280;43810;50.860;19.226;2024-01-16T04:29:11;97033.66;;;-2.72;100.00
58018;BME280;43810;50.860;19.226;2024-01-16T04:31:40;97027.69;;;-2.72;100.00
58018;BME280;43810;50.860;19.226;2024-01-16T04:34:07;97034.06;;;-2.83;100.00
58018;BME280;43810;50.860;19.226;2024-01-16T04:36:32;97033.63;;;-2.90;100.00
58018;BME280;43810;50.860;19.226;2024-01-16T04:38:58;97042.97;;;-2.89;100.00
58018;BME280;43810;50.860;19.226;2024-01-16T04:41:24;97049.19;;;-2.90;100.00
58018;BME280;43810;50.860;19.226;2024-01-16T04:43:50;97046.44;;;-2.99;100.00
58018;BME280;43810;50.860;19.226;2024-01-16T04:46:15;97040.94;;;-3.16;100.00
58018;BME280;43810;50.860;19.226;2024-01-16T04:48:42;97044.13;;;-3.24;100.00
58018;BME280;43810;50.860;19.226;2024-01-16T04:51:08;97046.53;;;-3.28;100.00
58018;BME280;43810;50.860;19.226;2024-01-16T04:53:34;97038.78;;;-3.33;100.00
58018;BME280;43810;50.860;19.226;2024-01-16T04:56:00;97050.19;;;-3.29;100.00
58018;BME280;43810;50.860;19.226;2024-01-16T04:58:26;97051.50;;;-3.31;100.00
58018;BME280;43810;50.860;19.226;2024-01-16T05:00:51;97067.25;;;-3.23;100.00
58018;BME280;43810;50.860;19.226;2024-01-16T05:03:17;97059.41;;;-3.18;100.00
58018;BME280;43810;50.860;19.226;2024-01-16T05:05:43;97066.84;;;-3.11;100.00
58018;BME280;43810;50.860;19.226;2024-01-16T05:08:09;97061.34;;;-3.05;100.00
58018;BME280;43810;50.860;19.226;2024-01-16T05:10:35;97070.19;;;-3.06;100.00
58018;BME280;43810;50.860;19.226;2024-01-16T05:13:01;97071.88;;;-2.96;100.00
58018;BME280;43810;50.860;19.226;2024-01-16T05:15:26;97090.78;;;-2.90;100.00
58018;BME280;43810;50.860;19.226;2024-01-16T05:17:52;97087.00;;;-2.79;100.00
58018;BME280;43810;50.860;19.226;2024-01-16T05:20:19;97096.44;;;-2.83;100.00
58018;BME280;43810;50.860;19.226;2024-01-16T05:22:45;97099.41;;;-2.71;100.00
58018;BME280;43810;50.860;19.226;2024-01-16T05:25:10;97108.13;;;-2.62;100.00
58018;BME280;43810;50.860;19.226;2024-01-16T05:27:36;97105.94;;;-2.74;100.00
58018;BME280;43810;50.860;19.226;2024-01-16T05:30:02;97107.91;;;-2.66;100.00
58018;BME280;43810;50.860;19.226;2024-01-16T05:32:28;97103.56;;;-2.70;100.00
58018;BME280;43810;50.860;19.226;2024-01-16T05:34:54;97114.09;;;-2.61;100.00
58018;BME280;43810;50.860;19.226;2024-01-16T05:37:20;97117.41;;;-2.56;100.00
58018;BME280;43810;50.860;19.226;2024-01-16T05:39:45;97117.53;;;-2.66;100.00
58018;BME280;43810;50.860;19.226;2024-01-16T05:42:11;97113.88;;;-2.65;100.00
58018;BME280;43810;50.860;19.226;2024-01-16T05:44:37;97123.78;;;-2.67;100.00
58018;BME280;43810;50.860;19.226;2024-01-16T05:47:04;97139.06;;;-2.60;100.00
58018;BME280;43810;50.860;19.226;2024-01-16T05:49:30;97130.31;;;-2.70;100.00
58018;BME280;43810;50.860;19.226;2024-01-16T05:51:56;97132.63;;;-2.68;100.00
58018;BME280;43810;50.860;19.226;2024-01-16T05:54:21;97130.25;;;-2.65;100.00
58018;BME280;43810;50.860;19.226;2024-01-16T05:56:47;97139.09;;;-2.66;100.00
58018;BME280;43810;50.860;19.226;2024-01-16T05:59:13;97132.47;;;-2.77;100.00
58018;BME280;43810;50.860;19.226;2024-01-16T06:01:39;97131.69;;;-2.77;100.00
58018;BME280;43810;50.860;19.226;2024-01-16T06:04:04;97137.66;;;-2.77;100.00
58018;BME280;43810;50.860;19.226;2024-01-16T06:06:30;97149.72;;;-2.86;100.00
58018;BME280;43810;50.860;19.226;2024-01-16T06:08:56;97142.31;;;-2.97;100.00
58018;BME280;43810;50.860;19.226;2024-01-16T06:11:33;97141.03;;;-3.00;100.00
58018;BME280;43810;50.860;19.226;2024-01-16T06:14:00;97156.63;;;-3.00;100.00
58018;BME280;43810;50.860;19.226;2024-01-16T06:16:26;97167.75;;;-2.94;100.00
58018;BME280;43810;50.860;19.226;2024-01-16T06:18:52;97174.88;;;-3.05;100.00
58018;BME280;43810;50.860;19.226;2024-01-16T06:21:18;97184.63;;;-3.21;100.00
58018;BME280;43810;50.860;19.226;2024-01-16T06:23:43;97192.84;;;-3.14;100.00
58018;BME280;43810;50.860;19.226;2024-01-16T06:26:09;97200.44;;;-3.17;100.00
58018;BME280;43810;50.860;19.226;2024-01-16T06:28:35;97197.34;;;-3.19;100.00
58018;BME280;43810;50.860;19.226;2024-01-16T06:31:02;97211.53;;;-3.12;100.00
58018;BME280;43810;50.860;19.226;2024-01-16T06:33:27;97218.25;;;-3.06;100.00
58018;BME280;43810;50.860;19.226;2024-01-16T06:35:56;97227.91;;;-3.11;100.00
58018;BME280;43810;50.860;19.226;2024-01-16T06:38:22;97232.31;;;-3.07;100.00
58018;BME280;43810;50.860;19.226;2024-01-16T06:40:47;97232.56;;;-3.08;100.00
58018;BME280;43810;50.860;19.226;2024-01-16T06:43:14;97243.22;;;-3.10;100.00
58018;BME280;43810;50.860;19.226;2024-01-16T06:45:44;97242.78;;;-3.17;100.00
58018;BME280;43810;50.860;19.226;2024-01-16T06:48:10;97250.00;;;-3.14;100.00
58018;BME280;43810;50.860;19.226;2024-01-16T06:50:36;97254.84;;;-3.02;100.00
58018;BME280;43810;50.860;19.226;2024-01-16T06:53:02;97253.50;;;-2.94;100.00
58018;BME280;43810;50.860;19.226;2024-01-16T06:55:28;97249.84;;;-2.93;100.00
58018;BME280;43810;50.860;19.226;2024-01-16T06:57:53;97252.47;;;-2.93;100.00
58018;BME280;43810;50.860;19.226;2024-01-16T07:00:20;97262.25;;;-2.85;100.00
58018;BME280;43810;50.860;19.226;2024-01-16T07:02:48;97260.16;;;-2.83;100.00
58018;BME280;43810;50.860;19.226;2024-01-16T07:05:14;97266.34;;;-2.79;100.00
58018;BME280;43810;50.860;19.226;2024-01-16T07:07:39;97282.41;;;-2.72;100.00
58018;BME280;43810;50.860;19.226;2024-01-16T07:10:06;97289.09;;;-2.66;100.00
58018;BME280;43810;50.860;19.226;2024-01-16T07:12:44;97286.84;;;-2.73;100.00
58018;BME280;43810;50.860;19.226;2024-01-16T07:15:10;97296.88;;;-2.61;100.00
58018;BME280;43810;50.860;19.226;2024-01-16T07:17:36;97288.81;;;-2.59;100.00
58018;BME280;43810;50.860;19.226;2024-01-16T07:20:02;97297.66;;;-2.60;100.00
58018;BME280;43810;50.860;19.226;2024-01-16T07:22:28;97301.91;;;-2.46;100.00
58018;BME280;43810;50.860;19.226;2024-01-16T07:24:54;97300.56;;;-2.38;100.00
58018;BME280;43810;50.860;19.226;2024-01-16T07:27:19;97298.56;;;-2.46;100.00
58018;BME280;43810;50.860;19.226;2024-01-16T07:29:45;97300.16;;;-2.26;100.00
58018;BME280;43810;50.860;19.226;2024-01-16T07:32:11;97301.66;;;-2.20;100.00
58018;BME280;43810;50.860;19.226;2024-01-16T07:34:37;97305.78;;;-2.14;100.00
58018;BME280;43810;50.860;19.226;2024-01-16T07:37:03;97312.47;;;-2.08;100.00
58018;BME280;43810;50.860;19.226;2024-01-16T07:39:28;97320.91;;;-2.21;100.00
58018;BME280;43810;50.860;19.226;2024-01-16T07:41:54;97328.44;;;-2.20;100.00
58018;BME280;43810;50.860;19.226;2024-01-16T07:44:20;97329.66;;;-2.36;100.00
58018;BME280;43810;50.860;19.226;2024-01-16T07:46:46;97336.63;;;-2.32;100.00
58018;BME280;43810;50.860;19.226;2024-01-16T07:49:12;97333.53;;;-2.34;100.00
58018;BME280;43810;50.860;19.226;2024-01-16T07:51:38;97336.69;;;-2.37;100.00
58018;BME280;43810;50.860;19.226;2024-01-16T07:54:10;97340.84;;;-2.36;100.00
58018;BME280;43810;50.860;19.226;2024-01-16T07:56:36;97347.28;;;-2.28;100.00
58018;BME280;43810;50.860;19.226;2024-01-16T07:59:03;97345.56;;;-2.43;100.00
58018;BME280;43810;50.860;19.226;2024-01-16T08:01:29;97353.38;;;-2.43;100.00
58018;BME280;43810;50.860;19.226;2024-01-16T08:03:55;97354.06;;;-2.61;100.00
58018;BME280;43810;50.860;19.226;2024-01-16T08:06:21;97371.13;;;-2.50;100.00
58018;BME280;43810;50.860;19.226;2024-01-16T08:08:48;97357.19;;;-2.59;100.00
58018;BME280;43810;50.860;19.226;2024-01-16T08:11:15;97356.94;;;-2.62;100.00
58018;BME280;43810;50.860;19.226;2024-01-16T08:13:40;97370.38;;;-2.55;100.00
58018;BME280;43810;50.860;19.226;2024-01-16T08:16:07;97365.88;;;-2.79;100.00
58018;BME280;43810;50.860;19.226;2024-01-16T08:18:36;97372.97;;;-2.89;100.00
58018;BME280;43810;50.860;19.226;2024-01-16T08:21:02;97366.84;;;-3.04;100.00
58018;BME280;43810;50.860;19.226;2024-01-16T08:23:28;97376.69;;;-3.01;100.00
58018;BME280;43810;50.860;19.226;2024-01-16T08:25:54;97383.88;;;-2.87;100.00
58018;BME280;43810;50.860;19.226;2024-01-16T08:28:20;97381.53;;;-2.84;100.00
58018;BME280;43810;50.860;19.226;2024-01-16T08:30:46;97395.75;;;-2.76;100.00
58018;BME280;43810;50.860;19.226;2024-01-16T08:33:12;97390.84;;;-2.78;100.00
58018;BME280;43810;50.860;19.226;2024-01-16T08:35:38;97397.56;;;-2.72;100.00
58018;BME280;43810;50.860;19.226;2024-01-16T08:38:04;97401.41;;;-2.64;100.00
58018;BME280;43810;50.860;19.226;2024-01-16T08:40:30;97397.41;;;-2.51;100.00
58018;BME280;43810;50.860;19.226;2024-01-16T08:42:56;97400.47;;;-2.44;100.00
58018;BME280;43810;50.860;19.226;2024-01-16T08:45:22;97396.63;;;-2.52;100.00
58018;BME280;43810;50.860;19.226;2024-01-16T08:47:49;97397.22;;;-2.31;100.00
58018;BME280;43810;50.860;19.226;2024-01-16T08:50:15;97400.63;;;-2.31;100.00
58018;BME280;43810;50.860;19.226;2024-01-16T08:52:41;97401.81;;;-2.18;100.00
58018;BME280;43810;50.860;19.226;2024-01-16T08:55:08;97405.63;;;-2.10;100.00
58018;BME280;43810;50.860;19.226;2024-01-16T08:57:36;97420.06;;;-1.94;100.00
58018;BME280;43810;50.860;19.226;2024-01-16T09:00:05;97418.06;;;-2.02;100.00
58018;BME280;43810;50.860;19.226;2024-01-16T09:02:31;97415.91;;;-1.95;100.00
58018;BME280;43810;50.860;19.226;2024-01-16T09:04:57;97419.44;;;-1.86;99.96
58018;BME280;43810;50.860;19.226;2024-01-16T09:07:25;97423.41;;;-1.88;99.24
58018;BME280;43810;50.860;19.226;2024-01-16T09:09:50;97428.81;;;-1.85;99.47
58018;BME280;43810;50.860;19.226;2024-01-16T09:12:17;97422.28;;;-1.82;99.18
58018;BME280;43810;50.860;19.226;2024-01-16T09:14:43;97432.19;;;-1.84;99.25
58018;BME280;43810;50.860;19.226;2024-01-16T09:17:09;97428.97;;;-1.76;99.16
58018;BME280;43810;50.860;19.226;2024-01-16T09:19:35;97431.31;;;-1.51;98.10
58018;BME280;43810;50.860;19.226;2024-01-16T09:22:00;97436.59;;;-1.32;96.97
58018;BME280;43810;50.860;19.226;2024-01-16T09:24:28;97439.47;;;-1.34;96.62
58018;BME280;43810;50.860;19.226;2024-01-16T09:26:54;97434.19;;;-1.29;97.06
58018;BME280;43810;50.860;19.226;2024-01-16T09:29:20;97431.31;;;-1.27;96.02
58018;BME280;43810;50.860;19.226;2024-01-16T09:31:50;97437.19;;;-1.40;96.26
58018;BME280;43810;50.860;19.226;2024-01-16T09:34:17;97435.72;;;-1.28;96.05
58018;BME280;43810;50.860;19.226;2024-01-16T09:36:43;97439.66;;;-1.30;96.06
58018;BME280;43810;50.860;19.226;2024-01-16T09:39:09;97441.16;;;-1.24;95.96
58018;BME280;43810;50.860;19.226;2024-01-16T09:41:40;97449.38;;;-1.12;95.40
58018;BME280;43810;50.860;19.226;2024-01-16T09:44:08;97447.03;;;-1.13;96.09
58018;BME280;43810;50.860;19.226;2024-01-16T09:46:37;97454.03;;;-1.09;96.22
58018;BME280;43810;50.860;19.226;2024-01-16T09:49:03;97440.28;;;-0.96;96.22
58018;BME280;43810;50.860;19.226;2024-01-16T09:51:29;97445.56;;;-1.01;96.12
58018;BME280;43810;50.860;19.226;2024-01-16T09:53:55;97453.53;;;-0.92;94.95
58018;BME280;43810;50.860;19.226;2024-01-16T09:56:22;97460.94;;;-0.99;94.95
58018;BME280;43810;50.860;19.226;2024-01-16T09:58:55;97456.13;;;-0.92;94.75
58018;BME280;43810;50.860;19.226;2024-01-16T10:01:22;97467.16;;;-0.76;93.62
58018;BME280;43810;50.860;19.226;2024-01-16T10:03:48;97467.66;;;-0.74;92.71
58018;BME280;43810;50.860;19.226;2024-01-16T10:06:15;97469.25;;;-0.60;91.88
58018;BME280;43810;50.860;19.226;2024-01-16T10:08:44;97471.69;;;-0.63;90.78
58018;BME280;43810;50.860;19.226;2024-01-16T10:11:10;97465.81;;;-0.55;91.00
58018;BME280;43810;50.860;19.226;2024-01-16T10:13:36;97468.91;;;-0.53;90.43
58018;BME280;43810;50.860;19.226;2024-01-16T10:16:02;97464.38;;;-0.48;90.61
58018;BME280;43810;50.860;19.226;2024-01-16T10:18:29;97476.25;;;-0.55;91.44
58018;BME280;43810;50.860;19.226;2024-01-16T10:20:59;97464.19;;;-0.51;90.98
58018;BME280;43810;50.860;19.226;2024-01-16T10:23:27;97462.78;;;-0.43;90.85
58018;BME280;43810;50.860;19.226;2024-01-16T10:26:10;97470.97;;;-0.50;90.69
58018;BME280;43810;50.860;19.226;2024-01-16T10:28:37;97476.81;;;-0.39;89.68
58018;BME280;43810;50.860;19.226;2024-01-16T10:31:08;97471.94;;;-0.46;89.49
58018;BME280;43810;50.860;19.226;2024-01-16T10:33:34;97486.41;;;-0.54;89.52
58018;BME280;43810;50.860;19.226;2024-01-16T10:36:14;97482.03;;;-0.58;88.24
58018;BME280;43810;50.860;19.226;2024-01-16T10:38:43;97496.06;;;-0.54;88.91
58018;BME280;43810;50.860;19.226;2024-01-16T10:41:16;97490.75;;;-0.49;87.74
58018;BME280;43810;50.860;19.226;2024-01-16T10:44:06;97491.19;;;-0.42;87.35
58018;BME280;43810;50.860;19.226;2024-01-16T10:46:33;97502.59;;;-0.38;87.37
58018;BME280;43810;50.860;19.226;2024-01-16T10:49:00;97493.09;;;-0.29;85.72
58018;BME280;43810;50.860;19.226;2024-01-16T10:51:28;97496.38;;;-0.23;84.98
58018;BME280;43810;50.860;19.226;2024-01-16T10:53:59;97494.16;;;-0.30;85.84
58018;BME280;43810;50.860;19.226;2024-01-16T10:56:27;97505.66;;;-0.31;85.97
58018;BME280;43810;50.860;19.226;2024-01-16T11:01:28;97512.31;;;-0.25;86.42
58018;BME280;43810;50.860;19.226;2024-01-16T11:03:55;97517.38;;;-0.15;85.82
58018;BME280;43810;50.860;19.226;2024-01-16T11:06:23;97512.66;;;-0.13;84.72
58018;BME280;43810;50.860;19.226;2024-01-16T11:08:49;97516.50;;;-0.24;85.11
58018;BME280;43810;50.860;19.226;2024-01-16T11:11:15;97528.13;;;-0.35;85.86
58018;BME280;43810;50.860;19.226;2024-01-16T11:13:41;97530.19;;;-0.51;86.06
58018;BME280;43810;50.860;19.226;2024-01-16T11:16:13;97521.00;;;-0.48;86.68
58018;BME280;43810;50.860;19.226;2024-01-16T11:18:39;97528.84;;;-0.48;87.52
58018;BME280;43810;50.860;19.226;2024-01-16T11:21:07;97528.13;;;-0.35;86.59
58018;BME280;43810;50.860;19.226;2024-01-16T11:23:34;97523.53;;;-0.24;86.38
58018;BME280;43810;50.860;19.226;2024-01-16T11:26:24;97533.28;;;-0.30;86.97
58018;BME280;43810;50.860;19.226;2024-01-16T11:28:50;97541.91;;;-0.29;87.58
58018;BME280;43810;50.860;19.226;2024-01-16T11:31:33;97546.69;;;-0.36;88.75
58018;BME280;43810;50.860;19.226;2024-01-16T11:34:00;97535.06;;;-0.44;88.90
58018;BME280;43810;50.860;19.226;2024-01-16T11:39:17;97531.25;;;-0.52;90.57
58018;BME280;43810;50.860;19.226;2024-01-16T11:44:41;97534.44;;;-0.03;88.72
58018;BME280;43810;50.860;19.226;2024-01-16T11:47:17;97532.75;;;0.06;89.31
58018;BME280;43810;50.860;19.226;2024-01-16T11:49:43;97543.91;;;0.11;89.39
58018;BME280;43810;50.860;19.226;2024-01-16T11:52:10;97533.66;;;0.15;89.05
58018;BME280;43810;50.860;19.226;2024-01-16T11:54:41;97522.34;;;0.19;88.62
58018;BME280;43810;50.860;19.226;2024-01-16T12:00:21;97544.66;;;0.12;88.63
58018;BME280;43810;50.860;19.226;2024-01-16T12:02:56;97551.38;;;-0.01;88.67
58018;BME280;43810;50.860;19.226;2024-01-16T12:05:22;97549.44;;;-0.28;89.79
58018;BME280;43810;50.860;19.226;2024-01-16T12:07:50;97550.66;;;-0.39;90.20
58018;BME280;43810;50.860;19.226;2024-01-16T12:10:20;97543.75;;;-0.72;91.90
58018;BME280;43810;50.860;19.226;2024-01-16T12:12:49;97550.53;;;-0.71;92.74
58018;BME280;43810;50.860;19.226;2024-01-16T12:15:19;97553.25;;;-0.82;93.15
58018;BME280;43810;50.860;19.226;2024-01-16T12:18:01;97548.28;;;-0.78;91.60
58018;BME280;43810;50.860;19.226;2024-01-16T12:20:29;97547.91;;;-0.90;92.48
58018;BME280;43810;50.860;19.226;2024-01-16T12:23:00;97551.78;;;-0.88;93.00
58018;BME280;43810;50.860;19.226;2024-01-16T12:25:27;97554.00;;;-1.00;91.70
58018;BME280;43810;50.860;19.226;2024-01-16T12:27:57;97551.16;;;-1.03;91.77
58018;BME280;43810;50.860;19.226;2024-01-16T12:30:29;97547.06;;;-1.09;91.73
58018;BME280;43810;50.860;19.226;2024-01-16T12:33:05;97545.00;;;-0.89;91.33
58018;BME280;43810;50.860;19.226;2024-01-16T12:35:39;97547.22;;;-0.58;90.44
58018;BME280;43810;50.860;19.226;2024-01-16T12:38:10;97555.41;;;-0.65;90.11
58018;BME280;43810;50.860;19.226;2024-01-16T12:40:47;97554.78;;;-0.57;90.76
58018;BME280;43810;50.860;19.226;2024-01-16T12:43:16;97559.50;;;-0.59;90.27
58018;BME280;43810;50.860;19.226;2024-01-16T12:45:42;97561.97;;;-0.67;91.05
58018;BME280;43810;50.860;19.226;2024-01-16T12:48:10;97563.09;;;-0.73;91.46
58018;BME280;43810;50.860;19.226;2024-01-16T12:50:36;97570.13;;;-0.74;91.63
58018;BME280;43810;50.860;19.226;2024-01-16T12:53:03;97561.53;;;-0.74;92.02
58018;BME280;43810;50.860;19.226;2024-01-16T12:55:30;97568.50;;;-0.70;92.05